sensor_id;sensor_type;location;lat;lon;timestamp;pressure;altitude;pressure_sealevel;temperature;humidity
51496;BME280;37572;52.094;4.870;2023-04-05T00:00:28;102565.13;;;19.30;41.01
51496;BME280;37572;52.094;4.870;2023-04-05T00:02:56;102560.91;;;19.27;41.22
51496;BME280;37572;52.094;4.870;2023-04-05T00:05:22;102559.22;;;19.26;41.19
51496;BME280;37572;52.094;4.870;2023-04-05T00:07:57;102559.56;;;19.23;41.11
51496;BME280;37572;52.094;4.870;2023-04-05T00:10:25;102556.38;;;19.19;41.12
51496;BME280;37572;52.094;4.870;2023-04-05T00:12:50;102559.91;;;19.20;41.36
51496;BME280;37572;52.094;4.870;2023-04-05T00:15:16;102551.31;;;19.16;41.39
51496;BME280;37572;52.094;4.870;2023-04-05T00:17:42;102555.19;;;19.14;41.14
51496;BME280;37572;52.094;4.870;2023-04-05T00:20:08;102549.09;;;19.12;40.99
51496;BME280;37572;52.094;4.870;2023-04-05T00:22:35;102550.31;;;19.09;41.38
51496;BME280;37572;52.094;4.870;2023-04-05T00:25:01;102550.47;;;19.08;41.16
51496;BME280;37572;52.094;4.870;2023-04-05T00:27:27;102552.50;;;19.06;41.14
51496;BME280;37572;52.094;4.870;2023-04-05T00:29:52;102547.28;;;19.04;41.36
51496;BME280;37572;52.094;4.870;2023-04-05T00:32:17;102551.31;;;19.00;41.01
51496;BME280;37572;52.094;4.870;2023-04-05T00:34:43;102552.34;;;18.99;40.92
51496;BME280;37572;52.094;4.870;2023-04-05T00:37:08;102540.88;;;18.97;41.35
51496;BME280;37572;52.094;4.870;2023-04-05T00:39:34;102544.94;;;18.93;40.96
51496;BME280;37572;52.094;4.870;2023-04-05T00:42:02;102537.81;;;18.92;41.11
51496;BME280;37572;52.094;4.870;2023-04-05T00:44:28;102539.03;;;18.89;41.24
51496;BME280;37572;52.094;4.870;2023-04-05T00:46:54;102541.06;;;18.87;41.13
51496;BME280;37572;52.094;4.870;2023-04-05T00:49:19;102537.66;;;18.85;41.29
51496;BME280;37572;52.094;4.870;2023-04-05T00:51:45;102537.66;;;18.85;41.23
51496;BME280;37572;52.094;4.870;2023-04-05T00:54:12;102530.44;;;18.85;41.39
51496;BME280;37572;52.094;4.870;2023-04-05T00:56:38;102527.03;;;18.83;40.92
51496;BME280;37572;52.094;4.870;2023-04-05T00:59:04;102532.09;;;18.86;41.15
51496;BME280;37572;52.094;4.870;2023-04-05T01:01:30;102518.28;;;18.90;41.03
51496;BME280;37572;52.094;4.870;2023-04-05T01:04:00;102522.00;;;18.89;41.04
51496;BME280;37572;52.094;4.870;2023-04-05T01:12:09;102518.28;;;18.90;40.79
51496;BME280;37572;52.094;4.870;2023-04-05T01:14:56;102521.13;;;18.88;40.60
51496;BME280;37572;52.094;4.870;2023-04-05T01:17:27;102513.91;;;18.89;40.88
51496;BME280;37572;52.094;4.870;2023-04-05T01:19:56;102507.47;;;18.90;40.52
51496;BME280;37572;52.094;4.870;2023-04-05T01:33:57;102495.34;;;18.85;40.34
51496;BME280;37572;52.094;4.870;2023-04-05T01:36:48;102493.81;;;18.83;40.66
51496;BME280;37572;52.094;4.870;2023-04-05T01:39:16;102496.81;;;18.80;40.36
51496;BME280;37572;52.094;4.870;2023-04-05T01:41:42;102495.97;;;18.79;40.50
51496;BME280;37572;52.094;4.870;2023-04-05T01:44:07;102499.69;;;18.78;40.21
51496;BME280;37572;52.094;4.870;2023-04-05T01:46:33;102498.03;;;18.77;40.43
51496;BME280;37572;52.094;4.870;2023-04-05T01:48:58;102493.97;;;18.73;40.39
51496;BME280;37572;52.094;4.870;2023-04-05T01:51:23;102491.59;;;18.70;40.53
51496;BME280;37572;52.094;4.870;2023-04-05T01:53:49;102486.56;;;18.67;40.26
51496;BME280;37572;52.094;4.870;2023-04-05T01:56:15;102489.25;;;18.67;40.45
51496;BME280;37572;52.094;4.870;2023-04-05T01:58:40;102481.16;;;18.67;40.68
51496;BME280;37572;52.094;4.870;2023-04-05T02:01:05;102484.88;;;18.66;40.21
51496;BME280;37572;52.094;4.870;2023-04-05T02:03:31;102478.81;;;18.64;40.53
51496;BME280;37572;52.094;4.870;2023-04-05T02:05:56;102471.88;;;18.61;40.68
51496;BME280;37572;52.094;4.870;2023-04-05T02:08:22;102475.78;;;18.59;40.29
51496;BME280;37572;52.094;4.870;2023-04-05T02:10:47;102474.75;;;18.60;40.47
51496;BME280;37572;52.094;4.870;2023-04-05T02:13:13;102468.84;;;18.56;40.41
51496;BME280;37572;52.094;4.870;2023-04-05T02:15:38;102466.16;;;18.56;40.23
51496;BME280;37572;52.094;4.870;2023-04-05T02:18:03;102461.09;;;18.53;40.26
51496;BME280;37572;52.094;4.870;2023-04-05T02:20:29;102459.59;;;18.51;40.21
51496;BME280;37572;52.094;4.870;2023-04-05T02:22:55;102456.88;;;18.51;40.53
51496;BME280;37572;52.094;4.870;2023-04-05T02:25:21;102452.00;;;18.46;40.29
51496;BME280;37572;52.094;4.870;2023-04-05T02:27:47;102455.53;;;18.46;40.41
51496;BME280;37572;52.094;4.870;2023-04-05T02:30:12;102453.69;;;18.47;40.39
51496;BME280;37572;52.094;4.870;2023-04-05T02:32:41;102453.00;;;18.45;40.22
51496;BME280;37572;52.094;4.870;2023-04-05T02:35:10;102445.94;;;18.44;40.35
51496;BME280;37572;52.094;4.870;2023-04-05T02:37:36;102446.78;;;18.44;40.63
51496;BME280;37572;52.094;4.870;2023-04-05T02:40:04;102440.72;;;18.42;40.35
51496;BME280;37572;52.094;4.870;2023-04-05T02:42:30;102436.31;;;18.41;40.21
51496;BME280;37572;52.094;4.870;2023-04-05T02:44:55;102441.72;;;18.41;40.18
51496;BME280;37572;52.094;4.870;2023-04-05T02:47:21;102430.25;;;18.39;40.36
51496;BME280;37572;52.094;4.870;2023-04-05T02:49:47;102433.94;;;18.38;40.10
51496;BME280;37572;52.094;4.870;2023-04-05T02:52:13;102433.13;;;18.38;40.16
51496;BME280;37572;52.094;4.870;2023-04-05T02:54:38;102427.22;;;18.34;40.10
51496;BME280;37572;52.094;4.870;2023-04-05T02:57:03;102428.88;;;18.35;40.54
51496;BME280;37572;52.094;4.870;2023-04-05T02:59:28;102429.25;;;18.32;40.22
51496;BME280;37572;52.094;4.870;2023-04-05T03:01:54;102424.03;;;18.30;40.22
51496;BME280;37572;52.094;4.870;2023-04-05T03:04:19;102428.38;;;18.31;40.58
51496;BME280;37572;52.094;4.870;2023-04-05T03:06:45;102420.63;;;18.28;39.94
51496;BME280;37572;52.094;4.870;2023-04-05T03:09:13;102426.88;;;18.29;40.04
51496;BME280;37572;52.094;4.870;2023-04-05T03:11:38;102424.34;;;18.27;40.40
51496;BME280;37572;52.094;4.870;2023-04-05T03:14:04;102412.22;;;18.23;40.19
51496;BME280;37572;52.094;4.870;2023-04-05T03:16:29;102421.16;;;18.24;40.21
51496;BME280;37572;52.094;4.870;2023-04-05T03:18:55;102416.09;;;18.21;40.36
51496;BME280;37572;52.094;4.870;2023-04-05T03:21:21;102409.69;;;18.22;40.21
51496;BME280;37572;52.094;4.870;2023-04-05T03:23:46;102410.03;;;18.19;40.18
51496;BME280;37572;52.094;4.870;2023-04-05T03:26:12;102413.91;;;18.16;40.45
51496;BME280;37572;52.094;4.870;2023-04-05T03:28:39;102411.03;;;18.18;40.35
51496;BME280;37572;52.094;4.870;2023-04-05T03:31:09;102412.19;;;18.15;39.98
51496;BME280;37572;52.094;4.870;2023-04-05T03:33:34;102411.38;;;18.15;39.98
51496;BME280;37572;52.094;4.870;2023-04-05T03:36:00;102402.63;;;18.12;40.01
51496;BME280;37572;52.094;4.870;2023-04-05T03:38:25;102400.91;;;18.11;39.95
51496;BME280;37572;52.094;4.870;2023-04-05T03:40:52;102409.00;;;18.11;40.39
51496;BME280;37572;52.094;4.870;2023-04-05T03:43:17;102411.03;;;18.09;40.01
51496;BME280;37572;52.094;4.870;2023-04-05T03:45:43;102413.72;;;18.09;40.17
51496;BME280;37572;52.094;4.870;2023-04-05T03:48:08;102411.34;;;18.06;40.40
51496;BME280;37572;52.094;4.870;2023-04-05T03:50:34;102414.22;;;18.05;40.07
51496;BME280;37572;52.094;4.870;2023-04-05T03:52:59;102414.38;;;18.03;40.18
51496;BME280;37572;52.094;4.870;2023-04-05T03:55:24;102426.03;;;18.04;40.12
51496;BME280;37572;52.094;4.870;2023-04-05T03:57:51;102420.63;;;18.04;40.16
51496;BME280;37572;52.094;4.870;2023-04-05T04:00:16;102418.09;;;18.02;40.08
51496;BME280;37572;52.094;4.870;2023-04-05T04:02:48;102421.13;;;17.99;40.00
51496;BME280;37572;52.094;4.870;2023-04-05T04:05:14;102419.28;;;18.00;39.82
51496;BME280;37572;52.094;4.870;2023-04-05T04:07:40;102413.03;;;17.99;39.74
51496;BME280;37572;52.094;4.870;2023-04-05T04:10:06;102421.28;;;17.98;39.83
51496;BME280;37572;52.094;4.870;2023-04-05T04:12:32;102411.69;;;17.95;40.20
51496;BME280;37572;52.094;4.870;2023-04-05T04:14:58;102417.94;;;17.96;39.84
51496;BME280;37572;52.094;4.870;2023-04-05T04:17:34;102420.78;;;17.94;39.98
51496;BME280;37572;52.094;4.870;2023-04-05T04:20:00;102412.88;;;17.92;39.86
51496;BME280;37572;52.094;4.870;2023-04-05T04:22:26;102412.88;;;17.92;39.65
51496;BME280;37572;52.094;4.870;2023-04-05T04:25:00;102414.03;;;17.90;39.91
51496;BME280;37572;52.094;4.870;2023-04-05T04:27:30;102410.66;;;17.88;39.99
51496;BME280;37572;52.094;4.870;2023-04-05T04:29:56;102405.41;;;17.86;40.20
51496;BME280;37572;52.094;4.870;2023-04-05T04:32:29;102414.34;;;17.87;39.78
51496;BME280;37572;52.094;4.870;2023-04-05T04:35:14;102411.66;;;17.79;39.91
51496;BME280;37572;52.094;4.870;2023-04-05T04:37:44;102408.78;;;17.72;40.37
51496;BME280;37572;52.094;4.870;2023-04-05T04:40:14;102406.91;;;17.72;40.42
51496;BME280;37572;52.094;4.870;2023-04-05T04:42:43;102400.16;;;17.76;40.32
51496;BME280;37572;52.094;4.870;2023-04-05T04:45:17;102390.09;;;17.79;40.49
51496;BME280;37572;52.094;4.870;2023-04-05T04:47:44;102397.16;;;17.80;40.43
51496;BME280;37572;52.094;4.870;2023-04-05T04:50:10;102394.28;;;17.81;40.21
51496;BME280;37572;52.094;4.870;2023-04-05T04:52:39;102393.13;;;17.84;39.95
51496;BME280;37572;52.094;4.870;2023-04-05T04:55:07;102394.63;;;17.86;40.29
51496;BME280;37572;52.094;4.870;2023-04-05T04:57:32;102397.19;;;17.88;40.30
51496;BME280;37572;52.094;4.870;2023-04-05T04:59:58;102394.16;;;17.91;40.05
51496;BME280;37572;52.094;4.870;2023-04-05T05:02:24;102399.56;;;17.91;40.20
51496;BME280;37572;52.094;4.870;2023-04-05T05:04:49;102404.78;;;17.92;39.98
51496;BME280;37572;52.094;4.870;2023-04-05T05:07:15;102398.38;;;17.93;40.31
51496;BME280;37572;52.094;4.870;2023-04-05T05:09:43;102405.28;;;17.96;40.04
51496;BME280;37572;52.094;4.870;2023-04-05T05:12:08;102405.97;;;17.98;40.17
51496;BME280;37572;52.094;4.870;2023-04-05T05:14:34;102402.94;;;18.01;40.27
51496;BME280;37572;52.094;4.870;2023-04-05T05:16:59;102399.25;;;18.02;39.92
51496;BME280;37572;52.094;4.870;2023-04-05T05:19:24;102398.91;;;18.05;39.84
51496;BME280;37572;52.094;4.870;2023-04-05T05:21:50;102402.94;;;18.09;39.72
51496;BME280;37572;52.094;4.870;2023-04-05T05:24:17;102400.91;;;18.11;39.91
51496;BME280;37572;52.094;4.870;2023-04-05T05:26:42;102403.13;;;18.16;39.70
51496;BME280;37572;52.094;4.870;2023-04-05T05:29:08;102409.00;;;18.20;39.94
51496;BME280;37572;52.094;4.870;2023-04-05T05:31:33;102396.19;;;18.22;39.84
51496;BME280;37572;52.094;4.870;2023-04-05T05:33:58;102403.94;;;18.25;39.37
51496;BME280;37572;52.094;4.870;2023-04-05T05:36:23;102410.03;;;18.27;39.51
51496;BME280;37572;52.094;4.870;2023-04-05T05:38:52;102395.53;;;18.28;39.43
51496;BME280;37572;52.094;4.870;2023-04-05T05:41:18;102395.38;;;18.29;39.63
51496;BME280;37572;52.094;4.870;2023-04-05T05:43:43;102395.19;;;18.31;39.32
51496;BME280;37572;52.094;4.870;2023-04-05T05:46:08;102403.78;;;18.35;39.58
51496;BME280;37572;52.094;4.870;2023-04-05T05:48:34;102401.75;;;18.37;39.66
51496;BME280;37572;52.094;4.870;2023-04-05T05:50:59;102410.38;;;18.40;39.19
51496;BME280;37572;52.094;4.870;2023-04-05T05:53:27;102401.75;;;18.45;39.78
51496;BME280;37572;52.094;4.870;2023-04-05T05:55:52;102403.28;;;18.47;39.42
51496;BME280;37572;52.094;4.870;2023-04-05T05:58:18;102403.94;;;18.49;39.30
51496;BME280;37572;52.094;4.870;2023-04-05T06:00:43;102408.34;;;18.51;38.99
51496;BME280;37572;52.094;4.870;2023-04-05T06:03:09;102409.00;;;18.53;39.03
51496;BME280;37572;52.094;4.870;2023-04-05T06:05:35;102407.63;;;18.57;39.26
51496;BME280;37572;52.094;4.870;2023-04-05T06:08:00;102406.47;;;18.59;39.24
51496;BME280;37572;52.094;4.870;2023-04-05T06:10:28;102412.53;;;18.61;39.48
51496;BME280;37572;52.094;4.870;2023-04-05T06:12:53;102414.06;;;18.64;39.28
51496;BME280;37572;52.094;4.870;2023-04-05T06:15:19;102413.72;;;18.67;39.44
51496;BME280;37572;52.094;4.870;2023-04-05T06:17:44;102414.22;;;18.71;39.63
51496;BME280;37572;52.094;4.870;2023-04-05T06:20:10;102412.19;;;18.73;40.02
51496;BME280;37572;52.094;4.870;2023-04-05T06:22:39;102412.84;;;18.75;39.72
51496;BME280;37572;52.094;4.870;2023-04-05T06:25:06;102418.56;;;18.80;39.90
51496;BME280;37572;52.094;4.870;2023-04-05T06:27:32;102411.31;;;18.80;39.86
51496;BME280;37572;52.094;4.870;2023-04-05T06:30:01;102407.94;;;18.78;39.96
51496;BME280;37572;52.094;4.870;2023-04-05T06:32:26;102406.28;;;18.77;39.33
51496;BME280;37572;52.094;4.870;2023-04-05T06:34:51;102409.31;;;18.74;39.58
51496;BME280;37572;52.094;4.870;2023-04-05T06:37:17;102408.31;;;18.75;38.96
51496;BME280;37572;52.094;4.870;2023-04-05T06:39:43;102408.97;;;18.77;38.55
51496;BME280;37572;52.094;4.870;2023-04-05T06:42:08;102409.63;;;18.79;38.87
51496;BME280;37572;52.094;4.870;2023-04-05T06:44:33;102401.06;;;18.84;38.73
51496;BME280;37572;52.094;4.870;2023-04-05T06:46:58;102401.56;;;18.88;39.28
51496;BME280;37572;52.094;4.870;2023-04-05T06:49:24;102399.34;;;18.91;38.90
51496;BME280;37572;52.094;4.870;2023-04-05T06:51:49;102399.34;;;18.91;38.74
51496;BME280;37572;52.094;4.870;2023-04-05T06:54:15;102401.69;;;18.94;38.36
51496;BME280;37572;52.094;4.870;2023-04-05T06:56:40;102399.66;;;18.96;38.67
51496;BME280;37572;52.094;4.870;2023-04-05T06:59:06;102396.63;;;18.99;38.42
51496;BME280;37572;52.094;4.870;2023-04-05T07:01:31;102400.16;;;19.00;38.01
51496;BME280;37572;52.094;4.870;2023-04-05T07:03:56;102397.09;;;19.03;38.40
51496;BME280;37572;52.094;4.870;2023-04-05T07:06:22;102401.16;;;19.07;38.32
51496;BME280;37572;52.094;4.870;2023-04-05T07:08:48;102398.94;;;19.11;37.97
51496;BME280;37572;52.094;4.870;2023-04-05T07:11:13;102395.72;;;19.15;38.12
51496;BME280;37572;52.094;4.870;2023-04-05T07:13:39;102399.41;;;19.22;38.14
51496;BME280;37572;52.094;4.870;2023-04-05T07:16:05;102400.72;;;19.27;38.26
51496;BME280;37572;52.094;4.870;2023-04-05T07:18:30;102397.69;;;19.30;37.92
51496;BME280;37572;52.094;4.870;2023-04-05T07:20:57;102396.97;;;19.36;37.91
51496;BME280;37572;52.094;4.870;2023-04-05T07:23:26;102402.88;;;19.39;37.87
51496;BME280;37572;52.094;4.870;2023-04-05T07:25:52;102399.00;;;19.42;37.81
51496;BME280;37572;52.094;4.870;2023-04-05T07:28:18;102393.03;;;19.47;37.76
51496;BME280;37572;52.094;4.870;2023-04-05T07:30:43;102391.84;;;19.49;37.54
51496;BME280;37572;52.094;4.870;2023-04-05T07:33:09;102398.78;;;19.52;37.63
51496;BME280;37572;52.094;4.870;2023-04-05T07:35:35;102396.56;;;19.55;37.84
51496;BME280;37572;52.094;4.870;2023-04-05T07:38:01;102387.59;;;19.55;37.57
51496;BME280;37572;52.094;4.870;2023-04-05T07:40:26;102386.88;;;19.61;37.73
51496;BME280;37572;52.094;4.870;2023-04-05T07:42:51;102391.59;;;19.67;37.72
51496;BME280;37572;52.094;4.870;2023-04-05T07:45:17;102389.19;;;19.72;37.70
51496;BME280;37572;52.094;4.870;2023-04-05T07:47:42;102390.34;;;19.78;37.59
51496;BME280;37572;52.094;4.870;2023-04-05T07:50:08;102395.41;;;19.81;37.39
51496;BME280;37572;52.094;4.870;2023-04-05T07:52:35;102392.34;;;19.84;37.62
51496;BME280;37572;52.094;4.870;2023-04-05T07:55:01;102390.13;;;19.88;37.38
51496;BME280;37572;52.094;4.870;2023-04-05T07:57:27;102393.28;;;19.91;37.38
51496;BME280;37572;52.094;4.870;2023-04-05T07:59:53;102394.81;;;19.94;37.12
51496;BME280;37572;52.094;4.870;2023-04-05T08:02:19;102388.19;;;19.96;37.20
51496;BME280;37572;52.094;4.870;2023-04-05T08:04:45;102392.59;;;19.98;37.10
51496;BME280;37572;52.094;4.870;2023-04-05T08:07:10;102393.06;;;20.01;36.85
51496;BME280;37572;52.094;4.870;2023-04-05T08:09:36;102393.06;;;20.01;36.87
51496;BME280;37572;52.094;4.870;2023-04-05T08:12:01;102384.59;;;20.04;36.87
51496;BME280;37572;52.094;4.870;2023-04-05T08:14:27;102390.47;;;20.08;36.98
51496;BME280;37572;52.094;4.870;2023-04-05T08:16:52;102389.28;;;20.10;36.86
51496;BME280;37572;52.094;4.870;2023-04-05T08:19:18;102381.28;;;20.17;36.85
51496;BME280;37572;52.094;4.870;2023-04-05T08:21:43;102386.34;;;20.20;36.81
51496;BME280;37572;52.094;4.870;2023-04-05T08:24:08;102383.44;;;20.22;37.06
51496;BME280;37572;52.094;4.870;2023-04-05T08:26:34;102378.97;;;20.29;36.92
51496;BME280;37572;52.094;4.870;2023-04-05T08:28:59;102372.75;;;20.28;36.96
51496;BME280;37572;52.094;4.870;2023-04-05T08:31:24;102379.34;;;20.26;37.11
51496;BME280;37572;52.094;4.870;2023-04-05T08:33:50;102376.28;;;20.29;36.95
51496;BME280;37572;52.094;4.870;2023-04-05T08:36:15;102364.22;;;20.31;36.91
51496;BME280;37572;52.094;4.870;2023-04-05T08:38:41;102366.56;;;20.34;36.72
51496;BME280;37572;52.094;4.870;2023-04-05T08:41:16;102372.47;;;20.38;36.66
51496;BME280;37572;52.094;4.870;2023-04-05T08:43:55;102369.38;;;20.41;36.66
51496;BME280;37572;52.094;4.870;2023-04-05T08:46:23;102362.78;;;20.44;36.76
51496;BME280;37572;52.094;4.870;2023-04-05T08:48:49;102367.16;;;20.45;36.79
51496;BME280;37572;52.094;4.870;2023-04-05T08:51:21;102362.69;;;20.52;36.91
51496;BME280;37572;52.094;4.870;2023-04-05T08:53:47;102369.78;;;20.53;36.83
51496;BME280;37572;52.094;4.870;2023-04-05T08:56:33;102366.78;;;20.48;36.78
51496;BME280;37572;52.094;4.870;2023-04-05T08:59:11;102368.38;;;20.42;36.90
51496;BME280;37572;52.094;4.870;2023-04-05T09:01:43;102361.91;;;20.43;36.72
51496;BME280;37572;52.094;4.870;2023-04-05T09:04:22;102365.78;;;20.49;36.59
51496;BME280;37572;52.094;4.870;2023-04-05T09:06:49;102364.19;;;20.55;36.48
51496;BME280;37572;52.094;4.870;2023-04-05T09:09:15;102364.19;;;20.55;36.54
51496;BME280;37572;52.094;4.870;2023-04-05T09:11:42;102363.72;;;20.51;36.19
51496;BME280;37572;52.094;4.870;2023-04-05T09:14:07;102368.75;;;20.54;36.35
51496;BME280;37572;52.094;4.870;2023-04-05T09:16:40;102369.41;;;20.56;36.52
51496;BME280;37572;52.094;4.870;2023-04-05T09:19:06;102362.63;;;20.60;36.51
51496;BME280;37572;52.094;4.870;2023-04-05T09:21:57;102362.75;;;20.67;36.63
51496;BME280;37572;52.094;4.870;2023-04-05T09:24:35;102359.19;;;20.66;36.74
51496;BME280;37572;52.094;4.870;2023-04-05T09:27:11;102365.91;;;20.70;36.36
51496;BME280;37572;52.094;4.870;2023-04-05T09:29:40;102359.47;;;20.72;36.40
51496;BME280;37572;52.094;4.870;2023-04-05T09:32:07;102359.09;;;20.75;36.22
51496;BME280;37572;52.094;4.870;2023-04-05T09:34:34;102357.44;;;20.74;36.10
51496;BME280;37572;52.094;4.870;2023-04-05T09:37:02;102360.88;;;20.67;35.33
51496;BME280;37572;52.094;4.870;2023-04-05T09:39:29;102351.75;;;20.68;35.63
51496;BME280;37572;52.094;4.870;2023-04-05T09:44:57;102350.97;;;20.75;35.88
51496;BME280;37572;52.094;4.870;2023-04-05T09:47:30;102354.63;;;20.82;35.72
51496;BME280;37572;52.094;4.870;2023-04-05T09:52:40;102356.19;;;20.91;35.25
51496;BME280;37572;52.094;4.870;2023-04-05T09:55:06;102351.63;;;20.92;35.25
51496;BME280;37572;52.094;4.870;2023-04-05T09:57:35;102354.13;;;20.93;35.27
51496;BME280;37572;52.094;4.870;2023-04-05T10:00:02;102344.34;;;20.92;35.21
51496;BME280;37572;52.094;4.870;2023-04-05T10:02:39;102338.75;;;20.94;35.54
51496;BME280;37572;52.094;4.870;2023-04-05T10:05:06;102337.16;;;20.99;35.35
51496;BME280;37572;52.094;4.870;2023-04-05T10:07:32;102336.13;;;21.00;34.86
51496;BME280;37572;52.094;4.870;2023-04-05T10:09:58;102341.53;;;21.00;34.46
51496;BME280;37572;52.094;4.870;2023-04-05T10:12:26;102334.16;;;21.09;34.59
51496;BME280;37572;52.094;4.870;2023-04-05T10:14:53;102334.41;;;21.14;34.73
51496;BME280;37572;52.094;4.870;2023-04-05T10:17:46;102332.81;;;21.20;34.95
51496;BME280;37572;52.094;4.870;2023-04-05T10:20:23;102332.81;;;21.20;35.11
51496;BME280;37572;52.094;4.870;2023-04-05T10:23:16;102325.91;;;21.17;35.24
51496;BME280;37572;52.094;4.870;2023-04-05T10:28:35;102330.59;;;21.23;35.11
51496;BME280;37572;52.094;4.870;2023-04-05T10:34:06;102328.50;;;21.25;35.20
51496;BME280;37572;52.094;4.870;2023-04-05T10:36:35;102327.28;;;21.28;35.01
51496;BME280;37572;52.094;4.870;2023-04-05T10:39:11;102318.78;;;21.31;35.35
51496;BME280;37572;52.094;4.870;2023-04-05T10:41:46;102323.81;;;21.34;35.34
51496;BME280;37572;52.094;4.870;2023-04-05T10:44:11;102310.25;;;21.34;35.10
51496;BME280;37572;52.094;4.870;2023-04-05T10:46:39;102316.69;;;21.33;35.16
51496;BME280;37572;52.094;4.870;2023-04-05T10:49:19;102312.59;;;21.37;34.92
51496;BME280;37572;52.094;4.870;2023-04-05T10:51:46;102314.06;;;21.40;35.27
51496;BME280;37572;52.094;4.870;2023-04-05T10:54:12;102308.06;;;21.44;35.03
51496;BME280;37572;52.094;4.870;2023-04-05T10:56:41;102308.38;;;21.50;35.20
51496;BME280;37572;52.094;4.870;2023-04-05T10:59:07;102310.78;;;21.44;34.89
51496;BME280;37572;52.094;4.870;2023-04-05T11:01:34;102311.69;;;21.30;34.98
51496;BME280;37572;52.094;4.870;2023-04-05T11:04:15;102300.06;;;21.36;34.72
51496;BME280;37572;52.094;4.870;2023-04-05T11:06:41;102299.31;;;21.42;34.94
51496;BME280;37572;52.094;4.870;2023-04-05T11:09:17;102293.44;;;21.39;34.56
51496;BME280;37572;52.094;4.870;2023-04-05T11:11:49;102293.63;;;21.37;34.46
51496;BME280;37572;52.094;4.870;2023-04-05T11:14:20;102294.38;;;21.31;34.55
51496;BME280;37572;52.094;4.870;2023-04-05T11:16:49;102289.84;;;21.32;35.05
51496;BME280;37572;52.094;4.870;2023-04-05T11:19:17;102288.09;;;21.46;34.82
51496;BME280;37572;52.094;4.870;2023-04-05T11:21:43;102292.31;;;21.48;35.13
51496;BME280;37572;52.094;4.870;2023-04-05T11:24:13;102297.47;;;21.65;34.83
51496;BME280;37572;52.094;4.870;2023-04-05T11:29:14;102289.41;;;21.71;35.23
51496;BME280;37572;52.094;4.870;2023-04-05T11:31:58;102287.59;;;21.78;35.03
51496;BME280;37572;52.094;4.870;2023-04-05T11:34:24;102279.72;;;21.84;34.96
51496;BME280;37572;52.094;4.870;2023-04-05T11:36:50;102282.88;;;21.87;34.98
51496;BME280;37572;52.094;4.870;2023-04-05T11:41:58;102275.75;;;21.86;34.85
51496;BME280;37572;52.094;4.870;2023-04-05T11:44:23;102270.78;;;21.90;35.33
51496;BME280;37572;52.094;4.870;2023-04-05T11:46:50;102265.63;;;21.95;35.21
51496;BME280;37572;52.094;4.870;2023-04-05T11:49:16;102265.63;;;21.95;35.02
51496;BME280;37572;52.094;4.870;2023-04-05T11:51:42;102265.34;;;21.90;34.93
51496;BME280;37572;52.094;4.870;2023-04-05T11:54:08;102264.91;;;21.86;34.85
51496;BME280;37572;52.094;4.870;2023-04-05T11:56:33;102263.25;;;21.85;34.61
51496;BME280;37572;52.094;4.870;2023-04-05T11:58:59;102261.63;;;21.91;34.93
51496;BME280;37572;52.094;4.870;2023-04-05T12:01:24;102256.19;;;21.91;34.49
51496;BME280;37572;52.094;4.870;2023-04-05T12:03:54;102253.28;;;21.92;35.17
51496;BME280;37572;52.094;4.870;2023-04-05T12:06:24;102251.59;;;21.91;35.23
51496;BME280;37572;52.094;4.870;2023-04-05T12:08:50;102255.41;;;21.97;34.83
51496;BME280;37572;52.094;4.870;2023-04-05T12:11:29;102244.31;;;21.92;34.75
51496;BME280;37572;52.094;4.870;2023-04-05T12:14:00;102243.94;;;21.95;34.64
51496;BME280;37572;52.094;4.870;2023-04-05T12:16:27;102241.38;;;21.87;33.48
51496;BME280;37572;52.094;4.870;2023-04-05T12:18:54;102240.47;;;21.79;33.39
51496;BME280;37572;52.094;4.870;2023-04-05T12:21:20;102250.88;;;21.76;33.64
51496;BME280;37572;52.094;4.870;2023-04-05T12:23:45;102240.06;;;21.83;33.35
51496;BME280;37572;52.094;4.870;2023-04-05T12:26:11;102237.31;;;21.76;32.96
51496;BME280;37572;52.094;4.870;2023-04-05T12:28:54;102240.84;;;21.76;33.62
51496;BME280;37572;52.094;4.870;2023-04-05T12:31:43;102239.63;;;21.79;33.77
51496;BME280;37572;52.094;4.870;2023-04-05T12:34:09;102228.41;;;21.82;33.25
51496;BME280;37572;52.094;4.870;2023-04-05T12:36:36;102229.66;;;21.86;33.46
51496;BME280;37572;52.094;4.870;2023-04-05T12:39:06;102232.88;;;21.96;33.73
51496;BME280;37572;52.094;4.870;2023-04-05T12:41:32;102219.19;;;22.11;33.46
51496;BME280;37572;52.094;4.870;2023-04-05T12:43:58;102218.00;;;22.21;32.85
51496;BME280;37572;52.094;4.870;2023-04-05T12:46:38;102226.25;;;22.34;33.47
51496;BME280;37572;52.094;4.870;2023-04-05T12:49:16;102220.69;;;22.49;33.16
51496;BME280;37572;52.094;4.870;2023-04-05T12:51:43;102222.69;;;22.75;32.89
51496;BME280;37572;52.094;4.870;2023-04-05T12:54:13;102221.91;;;23.01;32.64
51496;BME280;37572;52.094;4.870;2023-04-05T12:56:40;102217.81;;;23.19;32.40
51496;BME280;37572;52.094;4.870;2023-04-05T12:59:06;102212.41;;;23.86;31.55
51496;BME280;37572;52.094;4.870;2023-04-05T13:01:32;102205.88;;;25.42;29.48
51496;BME280;37572;52.094;4.870;2023-04-05T13:03:58;102208.28;;;28.88;25.36
51496;BME280;37572;52.094;4.870;2023-04-05T13:06:25;102203.69;;;30.78;23.52
51496;BME280;37572;52.094;4.870;2023-04-05T13:08:51;102205.22;;;31.99;22.20
51496;BME280;37572;52.094;4.870;2023-04-05T13:11:16;102200.06;;;32.91;21.56
51496;BME280;37572;52.094;4.870;2023-04-05T13:13:42;102201.41;;;33.66;19.99
51496;BME280;37572;52.094;4.870;2023-04-05T13:16:07;102190.44;;;33.19;21.17
51496;BME280;37572;52.094;4.870;2023-04-05T13:18:32;102205.31;;;33.08;20.94
51496;BME280;37572;52.094;4.870;2023-04-05T13:20:58;102194.75;;;33.98;20.19
51496;BME280;37572;52.094;4.870;2023-04-05T13:23:23;102184.72;;;34.12;20.19
51496;BME280;37572;52.094;4.870;2023-04-05T13:25:48;102183.66;;;35.02;19.67